Terminal Aerodrome Forecast
Issued by NWS Dallas/Fort Worth, TX

Home | Current Version | Previous Version | Text Only | Print | Product List | Glossary On
Versions: 1 2 3 4 5 6 7 8 9 10 11 12 13 14 15 16 17 18 19 20 21 22 23 24 25 26 27 28 29 30
000
FTUS44 KFWD 271503 AAB
TAFDFW
TAF AMD
KDFW 271503Z 2715/2818 15016KT 6SM -SHRA VCTS SCT015 BKN090CB
      TEMPO 2715/2717 4SM -TSRA BKN015CB
     FM271800 17017KT P6SM FEW030 SCT150
     FM280000 17017KT P6SM SCT040 BKN200
     FM281000 17012KT P6SM BKN020
     FM281600 19011KT P6SM SCT035=

USA.gov is the U.S. government's official web portal to all federal, state and local government web resources and services.